createdAt,value
2019-02-09T00:00:06.696Z,7.10
2019-02-09T00:02:47.589Z,7.10
2019-02-09T00:05:28.481Z,7.10
2019-02-09T00:08:09.075Z,7.10
2019-02-09T00:10:49.945Z,7.10
2019-02-09T00:13:30.747Z,7.10
2019-02-09T00:16:11.533Z,7.00
2019-02-09T00:18:52.314Z,7.00
2019-02-09T00:21:32.984Z,8.20
2019-02-09T00:24:13.888Z,7.00
2019-02-09T00:26:54.277Z,7.10
2019-02-09T00:29:35.060Z,7.70
2019-02-09T00:32:15.691Z,7.10
2019-02-09T00:34:56.458Z,10.90
2019-02-09T00:37:37.283Z,7.10
2019-02-09T00:40:17.881Z,7.20
2019-02-09T00:42:58.732Z,7.20
2019-02-09T00:45:39.455Z,7.60
2019-02-09T00:48:20.223Z,7.20
2019-02-09T00:51:01.099Z,7.20
2019-02-09T00:53:41.624Z,7.70
2019-02-09T00:56:21.893Z,7.10
2019-02-09T00:59:02.367Z,7.10
2019-02-09T01:01:42.827Z,7.10
2019-02-09T01:04:23.558Z,7.10
2019-02-09T01:07:04.373Z,8.40
2019-02-09T01:09:45.024Z,7.10
2019-02-09T01:12:25.585Z,7.10
2019-02-09T01:15:06.069Z,7.00
2019-02-09T01:17:46.853Z,6.90
2019-02-09T01:20:27.641Z,8.40
2019-02-09T01:23:08.392Z,6.50
2019-02-09T01:25:49.535Z,6.40
2019-02-09T01:28:30.410Z,9.40
2019-02-09T01:31:11.252Z,6.20
2019-02-09T01:33:51.779Z,6.20
2019-02-09T01:36:32.773Z,6.10
2019-02-09T01:39:13.510Z,6.10
2019-02-09T01:41:54.248Z,6.00
2019-02-09T01:44:34.807Z,6.00
2019-02-09T01:47:15.583Z,5.90
2019-02-09T01:49:56.457Z,5.80
2019-02-09T01:52:37.383Z,5.80
2019-02-09T01:55:17.819Z,5.80
2019-02-09T01:57:58.200Z,5.70
2019-02-09T02:00:38.730Z,5.60
2019-02-09T02:03:19.693Z,5.70
2019-02-09T02:06:00.224Z,7.90
2019-02-09T02:08:40.833Z,5.70
2019-02-09T02:11:21.188Z,5.70
2019-02-09T02:14:03.684Z,5.60
2019-02-09T02:16:44.041Z,5.60
2019-02-09T02:19:24.959Z,5.60
2019-02-09T02:22:05.608Z,5.60
2019-02-09T02:24:46.623Z,5.50
2019-02-09T02:27:27.114Z,5.50
2019-02-09T02:30:07.900Z,5.50
2019-02-09T02:32:48.378Z,5.70
2019-02-09T02:35:29.126Z,5.40
2019-02-09T02:38:09.763Z,5.30
2019-02-09T02:40:50.181Z,5.40
2019-02-09T02:43:31.204Z,5.30
2019-02-09T02:46:11.560Z,5.40
2019-02-09T02:48:52.193Z,5.30
2019-02-09T02:51:32.639Z,5.40
2019-02-09T02:54:13.469Z,5.40
2019-02-09T02:56:54.423Z,5.40
2019-02-09T02:59:35.091Z,5.50
2019-02-09T03:02:15.598Z,9.30
2019-02-09T03:04:56.094Z,5.50
2019-02-09T03:07:37.075Z,5.50
2019-02-09T03:10:17.951Z,5.50
2019-02-09T03:12:59.081Z,5.50
2019-02-09T03:15:39.865Z,5.60
2019-02-09T03:18:20.373Z,5.60
2019-02-09T03:21:01.032Z,5.50
2019-02-09T03:23:41.569Z,5.50
2019-02-09T03:26:22.335Z,5.50
2019-02-09T03:29:03.213Z,5.50
2019-02-09T03:31:43.807Z,5.50
2019-02-09T03:34:24.490Z,5.40
2019-02-09T03:37:04.913Z,5.40
2019-02-09T03:39:45.527Z,7.80
2019-02-09T03:42:25.800Z,5.30
2019-02-09T03:45:06.344Z,5.30
2019-02-09T03:47:47.406Z,5.30
2019-02-09T03:50:28.203Z,5.40
2019-02-09T03:53:09.255Z,6.20
2019-02-09T03:55:50.078Z,5.30
2019-02-09T03:58:31.048Z,5.30
2019-02-09T04:01:11.914Z,5.40
2019-02-09T04:03:52.469Z,5.30
2019-02-09T04:06:33.329Z,5.40
2019-02-09T04:09:14.258Z,5.40
2019-02-09T04:11:54.677Z,5.40
2019-02-09T04:14:35.230Z,5.40
2019-02-09T04:17:16.168Z,5.40
2019-02-09T04:19:56.690Z,5.40
2019-02-09T04:22:37.157Z,9.50
2019-02-09T04:25:17.727Z,5.50
2019-02-09T04:27:58.461Z,5.50
2019-02-09T04:30:38.880Z,5.50
2019-02-09T04:33:19.828Z,5.50
2019-02-09T04:36:00.605Z,5.50
2019-02-09T04:38:41.415Z,5.40
2019-02-09T04:41:22.013Z,5.50
2019-02-09T04:44:02.474Z,5.50
2019-02-09T04:46:43.201Z,5.50
2019-02-09T04:49:23.783Z,5.50
2019-02-09T04:52:04.614Z,5.50
2019-02-09T04:54:45.160Z,5.50
2019-02-09T04:57:25.756Z,5.50
2019-02-09T05:00:06.936Z,5.50
2019-02-09T05:02:47.614Z,5.50
2019-02-09T05:05:28.189Z,8.00
2019-02-09T05:08:09.124Z,5.60
2019-02-09T05:10:49.743Z,5.50
2019-02-09T05:13:30.546Z,5.60
2019-02-09T05:16:11.546Z,5.60
2019-02-09T05:18:52.216Z,5.50
2019-02-09T05:21:33.169Z,5.50
2019-02-09T05:24:13.887Z,5.50
2019-02-09T05:26:54.699Z,5.50
2019-02-09T05:29:35.648Z,5.50
2019-02-09T05:32:15.928Z,5.50
2019-02-09T05:34:56.649Z,7.90
2019-02-09T05:37:37.183Z,5.50
2019-02-09T05:40:17.801Z,5.50
2019-02-09T05:42:58.495Z,5.50
2019-02-09T05:45:39.232Z,5.60
2019-02-09T05:48:19.913Z,5.70
2019-02-09T05:51:00.852Z,5.70
2019-02-09T05:53:41.440Z,5.80
2019-02-09T05:56:22.461Z,5.80
2019-02-09T05:59:03.249Z,9.40
2019-02-09T06:01:44.073Z,5.70
2019-02-09T06:04:24.605Z,5.80
2019-02-09T06:07:05.469Z,5.90
2019-02-09T06:09:46.048Z,5.90
2019-02-09T06:12:26.841Z,5.90
2019-02-09T06:15:07.449Z,5.80
2019-02-09T06:17:48.224Z,8.30
2019-02-09T06:20:28.974Z,6.00
2019-02-09T06:23:10.012Z,6.00
2019-02-09T06:25:50.880Z,6.10
2019-02-09T06:28:31.716Z,6.10
2019-02-09T06:31:11.985Z,8.10
2019-02-09T06:33:52.796Z,6.10
2019-02-09T06:36:33.704Z,6.10
2019-02-09T06:39:14.087Z,6.10
2019-02-09T06:41:54.880Z,7.50
2019-02-09T06:44:35.625Z,6.00
2019-02-09T06:47:16.135Z,6.00
2019-02-09T06:49:56.620Z,6.10
2019-02-09T06:52:37.538Z,6.00
2019-02-09T06:55:18.265Z,5.90
2019-02-09T06:57:58.815Z,5.90
2019-02-09T07:00:39.639Z,5.80
2019-02-09T07:03:20.260Z,5.90
2019-02-09T07:06:00.640Z,5.90
2019-02-09T07:08:41.009Z,5.90
2019-02-09T07:11:21.979Z,6.60
2019-02-09T07:14:02.779Z,8.30
2019-02-09T07:16:43.363Z,9.70
2019-02-09T07:19:23.814Z,5.80
2019-02-09T07:22:04.073Z,5.80
2019-02-09T07:24:44.955Z,9.80
2019-02-09T07:27:25.698Z,5.80
2019-02-09T07:30:06.227Z,5.80
2019-02-09T07:32:46.954Z,5.90
2019-02-09T07:35:27.626Z,5.90
2019-02-09T07:38:08.436Z,5.90
2019-02-09T07:40:49.255Z,5.90
2019-02-09T07:43:29.798Z,5.90
2019-02-09T07:46:10.276Z,6.00
2019-02-09T07:48:51.094Z,6.00
2019-02-09T07:51:31.923Z,6.00
2019-02-09T07:54:12.741Z,6.10
2019-02-09T07:56:53.360Z,6.10
2019-02-09T07:59:34.018Z,6.10
2019-02-09T08:02:14.733Z,6.10
2019-02-09T08:04:55.330Z,6.10
2019-02-09T08:07:35.635Z,6.20
2019-02-09T08:10:16.051Z,6.20
2019-02-09T08:12:56.667Z,6.20
2019-02-09T08:15:37.158Z,6.30
2019-02-09T08:18:17.635Z,6.60
2019-02-09T08:20:58.314Z,6.40
2019-02-09T08:23:39.289Z,6.40
2019-02-09T08:26:20.363Z,6.40
2019-02-09T08:29:00.724Z,9.10
2019-02-09T08:31:41.589Z,6.50
2019-02-09T08:34:21.998Z,6.60
2019-02-09T08:37:02.630Z,6.50
2019-02-09T08:39:43.319Z,6.60
2019-02-09T08:42:23.966Z,6.60
2019-02-09T08:45:04.598Z,6.60
2019-02-09T08:47:45.342Z,6.60
2019-02-09T08:50:26.171Z,6.60
2019-02-09T08:53:07.015Z,8.40
2019-02-09T08:55:47.757Z,6.70
2019-02-09T08:58:28.248Z,6.70
2019-02-09T09:01:08.749Z,10.10
2019-02-09T09:03:49.544Z,6.70
2019-02-09T09:06:29.990Z,6.60
2019-02-09T09:09:10.984Z,6.50
2019-02-09T09:11:51.769Z,8.80
2019-02-09T09:14:32.255Z,6.40
2019-02-09T09:17:13.107Z,6.40
2019-02-09T09:19:53.910Z,8.50
2019-02-09T09:22:34.639Z,6.40
2019-02-09T09:25:15.436Z,6.40
2019-02-09T09:27:56.160Z,6.50
2019-02-09T09:30:36.770Z,9.50
2019-02-09T09:33:17.273Z,6.90
2019-02-09T09:35:58.125Z,7.10
2019-02-09T09:38:38.810Z,7.60
2019-02-09T09:41:19.560Z,7.70
2019-02-09T09:43:58.284Z,7.90
2019-02-09T09:46:46.025Z,8.10
2019-02-09T09:49:33.759Z,8.40
2019-02-09T09:52:12.520Z,8.30
2019-02-09T09:55:00.269Z,8.60
2019-02-09T09:57:48.051Z,9.70
2019-02-09T10:00:35.838Z,9.10
2019-02-09T10:03:23.521Z,11.00
2019-02-09T10:06:11.325Z,8.90
2019-02-09T10:12:06.008Z,8.90
2019-02-09T10:14:53.714Z,8.50
2019-02-09T10:17:41.430Z,8.50
2019-02-09T10:20:29.177Z,8.20
2019-02-09T10:23:16.974Z,8.00
2019-02-09T10:26:04.773Z,7.90
2019-02-09T10:31:59.349Z,8.40
2019-02-09T10:34:47.039Z,9.00
2019-02-09T10:40:49.345Z,9.70
2019-02-09T10:43:37.046Z,8.60
2019-02-09T10:46:24.773Z,8.50
2019-02-09T10:49:12.444Z,8.30
2019-02-09T10:54:46.839Z,8.20
2019-02-09T10:57:27.168Z,11.50
2019-02-09T11:00:07.899Z,8.00
2019-02-09T11:02:52.250Z,8.00
2019-02-09T11:05:31.429Z,8.00
2019-02-09T11:08:12.412Z,8.30
2019-02-09T11:10:53.420Z,12.70
2019-02-09T11:13:34.075Z,8.30
2019-02-09T11:16:14.934Z,8.90
2019-02-09T11:18:55.494Z,8.90
2019-02-09T11:21:36.271Z,9.20
2019-02-09T11:24:17.385Z,11.30
2019-02-09T11:26:58.050Z,8.90
2019-02-09T11:29:38.594Z,9.00
2019-02-09T11:32:19.219Z,9.70
2019-02-09T11:35:00.199Z,10.00
2019-02-09T11:37:40.906Z,14.20
2019-02-09T11:40:21.474Z,10.40
2019-02-09T11:43:02.298Z,13.50
2019-02-09T11:45:42.753Z,10.30
2019-02-09T11:48:23.235Z,13.50
2019-02-09T11:51:03.694Z,12.40
2019-02-09T11:53:44.485Z,12.50
2019-02-09T11:56:25.533Z,9.00
2019-02-09T11:59:06.426Z,9.10
2019-02-09T12:01:47.223Z,9.10
2019-02-09T12:04:28.261Z,8.90
2019-02-09T12:07:09.141Z,8.80
2019-02-09T12:09:50.142Z,8.80
2019-02-09T12:12:30.452Z,8.60
2019-02-09T12:15:11.130Z,8.50
2019-02-09T12:17:53.017Z,11.50
2019-02-09T12:20:33.624Z,8.80
2019-02-09T12:23:13.994Z,8.80
2019-02-09T12:25:55.329Z,8.90
2019-02-09T12:28:36.235Z,8.90
2019-02-09T12:31:16.706Z,9.10
2019-02-09T12:33:57.559Z,9.20
2019-02-09T12:36:38.508Z,9.20
2019-02-09T12:39:19.346Z,9.80
2019-02-09T12:42:00.296Z,9.70
2019-02-09T12:44:41.096Z,8.80
2019-02-09T12:47:22.004Z,8.70
2019-02-09T12:50:02.455Z,8.80
2019-02-09T12:52:43.269Z,8.80
2019-02-09T12:55:24.006Z,8.80
2019-02-09T12:58:04.574Z,8.70
2019-02-09T13:00:45.434Z,8.80
2019-02-09T13:03:31.458Z,8.70
2019-02-09T13:06:08.923Z,8.80
2019-02-09T13:08:49.767Z,8.70
2019-02-09T13:11:30.655Z,8.80
2019-02-09T13:14:11.050Z,8.70
2019-02-09T13:16:51.659Z,8.50
2019-02-09T13:19:32.029Z,8.10
2019-02-09T13:22:12.655Z,10.50
2019-02-09T13:24:53.135Z,9.90
2019-02-09T13:27:33.943Z,7.90
2019-02-09T13:30:14.913Z,7.90
2019-02-09T13:32:55.699Z,8.00
2019-02-09T13:35:36.437Z,8.10
2019-02-09T13:38:17.087Z,8.10
2019-02-09T13:40:57.536Z,8.30
2019-02-09T13:43:38.430Z,8.40
2019-02-09T13:46:19.303Z,8.40
2019-02-09T13:48:59.758Z,8.40
2019-02-09T13:51:40.641Z,8.50
2019-02-09T13:54:21.346Z,10.40
2019-02-09T13:57:02.265Z,8.50
2019-02-09T13:59:43.010Z,9.50
2019-02-09T14:02:23.449Z,7.80
2019-02-09T14:05:03.809Z,7.70
2019-02-09T14:07:44.414Z,7.90
2019-02-09T14:10:25.269Z,8.00
2019-02-09T14:13:05.933Z,8.20
2019-02-09T14:15:46.557Z,8.50
2019-02-09T14:18:26.945Z,9.00
2019-02-09T14:21:07.375Z,9.40
2019-02-09T14:23:47.976Z,9.80
2019-02-09T14:26:28.404Z,9.70
2019-02-09T14:29:08.944Z,13.00
2019-02-09T14:31:49.474Z,10.40
2019-02-09T14:34:30.280Z,10.60
2019-02-09T14:37:11.225Z,11.30
2019-02-09T14:39:52.204Z,12.10
2019-02-09T14:42:33.036Z,12.30
2019-02-09T14:45:13.726Z,12.20
2019-02-09T14:47:54.338Z,11.60
2019-02-09T14:50:35.236Z,13.20
2019-02-09T14:53:15.941Z,11.40
2019-02-09T14:55:57.126Z,11.00
2019-02-09T14:58:37.639Z,10.80
2019-02-09T15:01:18.211Z,10.40
2019-02-09T15:04:02.875Z,11.10
2019-02-09T15:06:41.443Z,9.60
2019-02-09T15:09:21.878Z,9.40
2019-02-09T15:12:02.894Z,9.30
2019-02-09T15:14:43.562Z,9.10
2019-02-09T15:17:24.445Z,9.20
2019-02-09T15:20:04.996Z,9.00
2019-02-09T15:22:45.609Z,9.40
2019-02-09T15:25:26.079Z,8.80
2019-02-09T15:28:06.720Z,8.70
2019-02-09T15:30:47.513Z,8.60
2019-02-09T15:33:27.973Z,11.80
2019-02-09T15:36:08.945Z,8.50
2019-02-09T15:38:49.661Z,8.40
2019-02-09T15:41:30.760Z,8.40
2019-02-09T15:44:11.664Z,8.40
2019-02-09T15:46:52.435Z,8.40
2019-02-09T15:49:33.133Z,8.30
2019-02-09T15:52:14.127Z,8.30
2019-02-09T15:54:55.060Z,8.20
2019-02-09T15:57:35.734Z,7.90
2019-02-09T16:03:29.566Z,6.80
2019-02-09T16:06:10.012Z,6.30
2019-02-09T16:08:51.134Z,5.90
2019-02-09T16:11:31.418Z,5.70
2019-02-09T16:14:12.084Z,5.60
2019-02-09T16:16:52.529Z,5.60
2019-02-09T16:19:33.454Z,5.60
2019-02-09T16:22:14.119Z,5.50
2019-02-09T16:24:54.755Z,5.40
2019-02-09T16:27:36.746Z,5.30
2019-02-09T16:30:18.493Z,5.30
2019-02-09T16:32:59.342Z,5.30
2019-02-09T16:35:39.825Z,5.20
2019-02-09T16:38:20.139Z,5.20
2019-02-09T16:41:00.984Z,5.10
2019-02-09T16:43:41.902Z,5.00
2019-02-09T16:46:22.673Z,5.00
2019-02-09T16:49:03.749Z,5.10
2019-02-09T16:51:44.639Z,5.00
2019-02-09T16:54:25.330Z,5.00
2019-02-09T16:57:05.834Z,5.10
2019-02-09T16:59:46.760Z,5.00
2019-02-09T17:02:26.994Z,5.00
2019-02-09T17:05:07.578Z,5.20
2019-02-09T17:07:48.063Z,5.20
2019-02-09T17:10:28.575Z,5.30
2019-02-09T17:13:09.365Z,5.30
2019-02-09T17:15:50.191Z,5.40
2019-02-09T17:18:30.999Z,5.50
2019-02-09T17:21:11.776Z,5.50
2019-02-09T17:23:52.390Z,5.60
2019-02-09T17:26:32.878Z,5.70
2019-02-09T17:29:13.745Z,5.70
2019-02-09T17:31:54.870Z,5.70
2019-02-09T17:34:40.732Z,5.90
2019-02-09T17:37:17.784Z,5.90
2019-02-09T17:39:58.825Z,6.00
2019-02-09T17:42:39.791Z,6.90
2019-02-09T17:45:20.425Z,6.00
2019-02-09T17:48:01.290Z,5.90
2019-02-09T17:50:41.795Z,5.80
2019-02-09T17:53:22.273Z,5.70
2019-02-09T17:56:03.095Z,5.70
2019-02-09T17:58:43.805Z,5.70
2019-02-09T18:01:24.480Z,5.70
2019-02-09T18:04:05.425Z,7.20
2019-02-09T18:06:45.974Z,5.90
2019-02-09T18:09:26.573Z,5.90
2019-02-09T18:12:07.200Z,5.90
2019-02-09T18:14:48.359Z,6.00
2019-02-09T18:17:29.321Z,6.00
2019-02-09T18:20:10.125Z,7.60
2019-02-09T18:22:50.833Z,6.40
2019-02-09T18:25:31.486Z,6.40
2019-02-09T18:28:12.142Z,6.40
2019-02-09T18:30:52.969Z,6.40
2019-02-09T18:33:33.811Z,7.10
2019-02-09T18:36:14.385Z,6.50
2019-02-09T18:38:54.735Z,6.50
2019-02-09T18:41:35.435Z,6.50
2019-02-09T18:44:15.980Z,6.50
2019-02-09T18:46:56.587Z,6.50
2019-02-09T18:49:37.196Z,6.50
2019-02-09T18:52:17.994Z,6.50
2019-02-09T18:54:58.898Z,6.60
2019-02-09T18:57:39.655Z,6.50
2019-02-09T19:00:22.108Z,6.50
2019-02-09T19:03:03.017Z,6.60
2019-02-09T19:05:43.646Z,6.60
2019-02-09T19:08:24.484Z,6.60
2019-02-09T19:11:05.108Z,6.60
2019-02-09T19:13:45.665Z,6.60
2019-02-09T19:16:26.399Z,9.10
2019-02-09T19:19:06.975Z,6.60
2019-02-09T19:21:49.430Z,7.30
2019-02-09T19:24:30.474Z,6.60
2019-02-09T19:27:11.079Z,10.10
2019-02-09T19:29:51.946Z,6.60
2019-02-09T19:32:32.851Z,6.60
2019-02-09T19:35:13.721Z,10.00
2019-02-09T19:37:54.942Z,8.50
2019-02-09T19:40:35.550Z,10.10
2019-02-09T19:43:16.296Z,6.50
2019-02-09T19:45:57.134Z,6.40
2019-02-09T19:48:37.795Z,6.40
2019-02-09T19:51:18.421Z,6.40
2019-02-09T19:53:59.038Z,6.40
2019-02-09T19:56:39.559Z,6.40
2019-02-09T19:59:20.247Z,6.40
2019-02-09T20:02:01.256Z,6.40
2019-02-09T20:04:42.010Z,6.50
2019-02-09T20:07:22.729Z,6.50
2019-02-09T20:10:03.455Z,6.50
2019-02-09T20:12:44.240Z,6.60
2019-02-09T20:15:25.091Z,6.50
2019-02-09T20:18:05.777Z,6.50
2019-02-09T20:20:47.548Z,6.40
2019-02-09T20:23:27.945Z,9.40
2019-02-09T20:26:08.545Z,6.40
2019-02-09T20:28:49.247Z,6.40
2019-02-09T20:31:29.875Z,6.50
2019-02-09T20:34:10.662Z,6.50
2019-02-09T20:36:51.594Z,6.60
2019-02-09T20:39:32.569Z,10.40
2019-02-09T20:42:13.427Z,10.40
2019-02-09T20:44:54.046Z,6.60
2019-02-09T20:47:34.967Z,6.60
2019-02-09T20:50:15.780Z,6.60
2019-02-09T20:52:56.319Z,6.60
2019-02-09T20:55:36.869Z,6.60
2019-02-09T20:58:17.735Z,6.60
2019-02-09T21:00:58.586Z,6.50
2019-02-09T21:03:39.658Z,6.50
2019-02-09T21:06:20.715Z,6.40
2019-02-09T21:09:01.676Z,6.40
2019-02-09T21:11:42.682Z,6.40
2019-02-09T21:14:23.755Z,6.40
2019-02-09T21:17:04.835Z,10.50
2019-02-09T21:19:45.507Z,6.50
2019-02-09T21:22:26.249Z,9.90
2019-02-09T21:25:07.280Z,6.50
2019-02-09T21:27:47.881Z,6.40
2019-02-09T21:30:28.926Z,6.50
2019-02-09T21:33:09.404Z,6.40
2019-02-09T21:35:50.055Z,6.40
2019-02-09T21:38:30.689Z,6.40
2019-02-09T21:41:11.191Z,6.40
2019-02-09T21:43:51.921Z,6.30
2019-02-09T21:46:32.781Z,6.40
2019-02-09T21:49:13.384Z,6.40
2019-02-09T21:51:54.293Z,6.50
2019-02-09T21:54:34.929Z,6.50
2019-02-09T21:57:15.678Z,6.50
2019-02-09T21:59:56.380Z,6.50
2019-02-09T22:02:42.308Z,6.40
2019-02-09T22:05:19.872Z,6.40
2019-02-09T22:08:00.766Z,6.30
2019-02-09T22:10:41.289Z,6.30
2019-02-09T22:13:22.325Z,6.20
2019-02-09T22:16:02.996Z,6.20
2019-02-09T22:18:43.551Z,6.20
2019-02-09T22:21:24.224Z,6.10
2019-02-09T22:24:04.814Z,6.20
2019-02-09T22:26:45.415Z,6.20
2019-02-09T22:29:26.189Z,6.30
2019-02-09T22:32:06.984Z,6.30
2019-02-09T22:34:47.841Z,6.40
2019-02-09T22:37:28.998Z,6.30
2019-02-09T22:40:10.087Z,6.40
2019-02-09T22:42:50.882Z,6.30
2019-02-09T22:45:31.771Z,6.30
2019-02-09T22:48:12.557Z,6.30
2019-02-09T22:50:55.575Z,6.20
2019-02-09T22:53:36.510Z,6.30
2019-02-09T22:56:17.376Z,6.30
2019-02-09T22:58:58.570Z,6.90
2019-02-09T23:01:39.478Z,6.30
2019-02-09T23:04:20.093Z,6.20
2019-02-09T23:07:01.015Z,6.20
2019-02-09T23:09:42.394Z,6.20
2019-02-09T23:12:23.325Z,6.20
2019-02-09T23:15:04.225Z,6.10
2019-02-09T23:17:45.160Z,6.10
2019-02-09T23:20:25.894Z,6.00
2019-02-09T23:23:06.757Z,6.00
2019-02-09T23:25:47.731Z,6.00
2019-02-09T23:28:28.574Z,6.10
2019-02-09T23:31:08.869Z,6.00
2019-02-09T23:33:49.406Z,6.00
2019-02-09T23:36:30.499Z,6.00
2019-02-09T23:39:11.706Z,6.00
2019-02-09T23:41:52.429Z,6.00
2019-02-09T23:44:32.836Z,6.00
2019-02-09T23:47:13.351Z,7.60
2019-02-09T23:49:54.557Z,6.00
2019-02-09T23:52:35.589Z,6.10
2019-02-09T23:55:16.726Z,6.10
2019-02-09T23:57:57.497Z,6.10
